sensor_id;sensor_type;location;lat;lon;timestamp;P1;durP1;ratioP1;P2;durP2;ratioP2
10511;SDS011;5304;48.604;2.096;2024-01-27T04:46:22;11.93;;;6.63;;
10511;SDS011;5304;48.604;2.096;2024-01-27T04:49:06;14.43;;;7.47;;
10511;SDS011;5304;48.604;2.096;2024-01-27T04:51:50;13.70;;;6.67;;
10511;SDS011;5304;48.604;2.096;2024-01-27T04:54:34;15.53;;;7.17;;
10511;SDS011;5304;48.604;2.096;2024-01-27T04:57:19;12.83;;;7.47;;
10511;SDS011;5304;48.604;2.096;2024-01-27T05:00:03;12.97;;;6.63;;
10511;SDS011;5304;48.604;2.096;2024-01-27T05:02:51;12.17;;;6.63;;
10511;SDS011;5304;48.604;2.096;2024-01-27T05:05:35;10.83;;;6.80;;
10511;SDS011;5304;48.604;2.096;2024-01-27T05:08:19;13.97;;;6.00;;
10511;SDS011;5304;48.604;2.096;2024-01-27T05:11:03;11.30;;;6.83;;
10511;SDS011;5304;48.604;2.096;2024-01-27T05:13:48;14.17;;;6.87;;
10511;SDS011;5304;48.604;2.096;2024-01-27T05:16:32;10.17;;;6.40;;
10511;SDS011;5304;48.604;2.096;2024-01-27T05:19:17;11.53;;;6.63;;
10511;SDS011;5304;48.604;2.096;2024-01-27T05:22:01;14.53;;;7.10;;
10511;SDS011;5304;48.604;2.096;2024-01-27T05:24:46;9.53;;;6.73;;
10511;SDS011;5304;48.604;2.096;2024-01-27T05:27:30;14.17;;;7.23;;
10511;SDS011;5304;48.604;2.096;2024-01-27T05:30:15;10.70;;;6.93;;
10511;SDS011;5304;48.604;2.096;2024-01-27T05:32:59;10.53;;;6.47;;
10511;SDS011;5304;48.604;2.096;2024-01-27T05:35:44;10.33;;;6.40;;
10511;SDS011;5304;48.604;2.096;2024-01-27T05:38:28;15.63;;;8.07;;
10511;SDS011;5304;48.604;2.096;2024-01-27T05:41:13;12.93;;;6.87;;
10511;SDS011;5304;48.604;2.096;2024-01-27T05:43:58;13.77;;;8.90;;
10511;SDS011;5304;48.604;2.096;2024-01-27T05:46:42;10.33;;;6.90;;
10511;SDS011;5304;48.604;2.096;2024-01-27T05:49:26;10.93;;;6.70;;
10511;SDS011;5304;48.604;2.096;2024-01-27T05:52:11;14.93;;;7.70;;
10511;SDS011;5304;48.604;2.096;2024-01-27T05:54:56;13.03;;;6.43;;
10511;SDS011;5304;48.604;2.096;2024-01-27T05:57:40;9.90;;;5.93;;
10511;SDS011;5304;48.604;2.096;2024-01-27T06:00:24;10.17;;;6.40;;
10511;SDS011;5304;48.604;2.096;2024-01-27T06:03:09;15.13;;;7.77;;
10511;SDS011;5304;48.604;2.096;2024-01-27T06:05:53;8.53;;;6.20;;
10511;SDS011;5304;48.604;2.096;2024-01-27T06:08:37;11.87;;;6.50;;
10511;SDS011;5304;48.604;2.096;2024-01-27T06:11:24;10.47;;;7.00;;
10511;SDS011;5304;48.604;2.096;2024-01-27T06:14:09;17.20;;;7.87;;
10511;SDS011;5304;48.604;2.096;2024-01-27T06:16:53;12.47;;;6.87;;
10511;SDS011;5304;48.604;2.096;2024-01-27T06:19:37;11.73;;;8.63;;
10511;SDS011;5304;48.604;2.096;2024-01-27T06:22:21;13.20;;;8.37;;
10511;SDS011;5304;48.604;2.096;2024-01-27T06:25:07;15.00;;;8.70;;
10511;SDS011;5304;48.604;2.096;2024-01-27T06:27:51;12.20;;;7.10;;
10511;SDS011;5304;48.604;2.096;2024-01-27T06:30:36;13.40;;;7.63;;
10511;SDS011;5304;48.604;2.096;2024-01-27T06:33:20;12.60;;;8.10;;
10511;SDS011;5304;48.604;2.096;2024-01-27T06:36:04;9.53;;;7.73;;
10511;SDS011;5304;48.604;2.096;2024-01-27T06:38:49;10.73;;;7.70;;
10511;SDS011;5304;48.604;2.096;2024-01-27T06:41:33;11.67;;;6.50;;
10511;SDS011;5304;48.604;2.096;2024-01-27T06:44:17;10.37;;;6.47;;
10511;SDS011;5304;48.604;2.096;2024-01-27T06:47:01;10.80;;;6.83;;
10511;SDS011;5304;48.604;2.096;2024-01-27T06:49:46;13.40;;;7.00;;
10511;SDS011;5304;48.604;2.096;2024-01-27T06:52:30;10.40;;;7.60;;
10511;SDS011;5304;48.604;2.096;2024-01-27T06:55:14;14.73;;;5.83;;
10511;SDS011;5304;48.604;2.096;2024-01-27T06:57:59;9.80;;;7.20;;
10511;SDS011;5304;48.604;2.096;2024-01-27T07:00:43;8.90;;;7.00;;
10511;SDS011;5304;48.604;2.096;2024-01-27T07:03:29;15.67;;;6.97;;
10511;SDS011;5304;48.604;2.096;2024-01-27T07:06:13;13.93;;;6.73;;
10511;SDS011;5304;48.604;2.096;2024-01-27T07:08:57;10.57;;;5.97;;
10511;SDS011;5304;48.604;2.096;2024-01-27T07:11:41;15.37;;;5.80;;
10511;SDS011;5304;48.604;2.096;2024-01-27T07:14:26;9.93;;;5.90;;
10511;SDS011;5304;48.604;2.096;2024-01-27T07:17:10;14.20;;;5.83;;
10511;SDS011;5304;48.604;2.096;2024-01-27T07:19:54;17.70;;;5.90;;
10511;SDS011;5304;48.604;2.096;2024-01-27T07:22:38;9.60;;;5.87;;
10511;SDS011;5304;48.604;2.096;2024-01-27T07:25:23;9.57;;;6.07;;
10511;SDS011;5304;48.604;2.096;2024-01-27T07:28:07;7.23;;;5.80;;
10511;SDS011;5304;48.604;2.096;2024-01-27T07:30:51;14.17;;;7.67;;
10511;SDS011;5304;48.604;2.096;2024-01-27T07:33:36;10.17;;;6.43;;
10511;SDS011;5304;48.604;2.096;2024-01-27T07:36:22;16.23;;;8.47;;
10511;SDS011;5304;48.604;2.096;2024-01-27T07:39:06;15.83;;;8.13;;
10511;SDS011;5304;48.604;2.096;2024-01-27T07:41:51;11.60;;;7.50;;
10511;SDS011;5304;48.604;2.096;2024-01-27T07:44:35;15.80;;;7.77;;
10511;SDS011;5304;48.604;2.096;2024-01-27T07:47:19;12.63;;;6.50;;
10511;SDS011;5304;48.604;2.096;2024-01-27T07:50:04;13.77;;;8.03;;
10511;SDS011;5304;48.604;2.096;2024-01-27T07:52:48;9.43;;;6.67;;
10511;SDS011;5304;48.604;2.096;2024-01-27T07:55:32;12.57;;;6.73;;
10511;SDS011;5304;48.604;2.096;2024-01-27T07:58:16;14.50;;;6.37;;
10511;SDS011;5304;48.604;2.096;2024-01-27T08:01:01;15.73;;;9.70;;
10511;SDS011;5304;48.604;2.096;2024-01-27T08:03:45;17.03;;;9.07;;
10511;SDS011;5304;48.604;2.096;2024-01-27T08:06:29;15.67;;;8.93;;
10511;SDS011;5304;48.604;2.096;2024-01-27T08:09:13;15.03;;;9.07;;
10511;SDS011;5304;48.604;2.096;2024-01-27T08:11:58;20.33;;;10.80;;
10511;SDS011;5304;48.604;2.096;2024-01-27T08:14:42;25.23;;;15.10;;
10511;SDS011;5304;48.604;2.096;2024-01-27T08:17:27;27.87;;;15.97;;
10511;SDS011;5304;48.604;2.096;2024-01-27T08:20:11;32.90;;;17.50;;
10511;SDS011;5304;48.604;2.096;2024-01-27T08:22:55;31.43;;;16.77;;
10511;SDS011;5304;48.604;2.096;2024-01-27T08:25:40;31.93;;;18.23;;
10511;SDS011;5304;48.604;2.096;2024-01-27T08:28:25;30.73;;;16.30;;
10511;SDS011;5304;48.604;2.096;2024-01-27T08:31:09;25.27;;;14.30;;
10511;SDS011;5304;48.604;2.096;2024-01-27T08:33:53;29.93;;;14.23;;
10511;SDS011;5304;48.604;2.096;2024-01-27T08:36:38;26.17;;;12.90;;
10511;SDS011;5304;48.604;2.096;2024-01-27T08:39:22;24.37;;;13.03;;
10511;SDS011;5304;48.604;2.096;2024-01-27T08:42:06;24.07;;;13.00;;
10511;SDS011;5304;48.604;2.096;2024-01-27T08:44:50;17.90;;;11.27;;
10511;SDS011;5304;48.604;2.096;2024-01-27T08:47:35;22.77;;;12.47;;
10511;SDS011;5304;48.604;2.096;2024-01-27T08:50:20;20.87;;;11.60;;
10511;SDS011;5304;48.604;2.096;2024-01-27T08:53:05;20.00;;;10.23;;
10511;SDS011;5304;48.604;2.096;2024-01-27T08:55:49;13.43;;;8.90;;
10511;SDS011;5304;48.604;2.096;2024-01-27T08:58:33;17.17;;;9.23;;
10511;SDS011;5304;48.604;2.096;2024-01-27T09:01:17;17.70;;;9.90;;
10511;SDS011;5304;48.604;2.096;2024-01-27T09:04:01;18.80;;;11.10;;
10511;SDS011;5304;48.604;2.096;2024-01-27T09:06:46;18.00;;;10.63;;
10511;SDS011;5304;48.604;2.096;2024-01-27T09:09:30;20.73;;;10.93;;
10511;SDS011;5304;48.604;2.096;2024-01-27T09:12:14;15.50;;;9.57;;
10511;SDS011;5304;48.604;2.096;2024-01-27T09:14:58;18.07;;;10.00;;
10511;SDS011;5304;48.604;2.096;2024-01-27T09:17:42;20.67;;;9.37;;
10511;SDS011;5304;48.604;2.096;2024-01-27T09:20:26;16.47;;;8.90;;
10511;SDS011;5304;48.604;2.096;2024-01-27T09:23:11;12.67;;;8.60;;
10511;SDS011;5304;48.604;2.096;2024-01-27T09:25:55;16.63;;;7.97;;
10511;SDS011;5304;48.604;2.096;2024-01-27T09:28:39;11.43;;;8.53;;
10511;SDS011;5304;48.604;2.096;2024-01-27T09:31:27;11.63;;;8.00;;
10511;SDS011;5304;48.604;2.096;2024-01-27T09:34:11;17.13;;;8.30;;
10511;SDS011;5304;48.604;2.096;2024-01-27T09:36:56;15.97;;;8.13;;
10511;SDS011;5304;48.604;2.096;2024-01-27T09:39:40;16.87;;;9.23;;
10511;SDS011;5304;48.604;2.096;2024-01-27T09:42:24;17.23;;;7.97;;
10511;SDS011;5304;48.604;2.096;2024-01-27T09:45:09;11.90;;;8.20;;
10511;SDS011;5304;48.604;2.096;2024-01-27T09:47:54;18.17;;;8.07;;
10511;SDS011;5304;48.604;2.096;2024-01-27T09:50:41;13.53;;;7.70;;
10511;SDS011;5304;48.604;2.096;2024-01-27T09:53:25;15.43;;;9.07;;
10511;SDS011;5304;48.604;2.096;2024-01-27T09:56:10;12.00;;;8.00;;
10511;SDS011;5304;48.604;2.096;2024-01-27T09:58:58;13.03;;;8.07;;
10511;SDS011;5304;48.604;2.096;2024-01-27T10:01:42;13.23;;;8.13;;
10511;SDS011;5304;48.604;2.096;2024-01-27T10:04:27;13.93;;;8.37;;
10511;SDS011;5304;48.604;2.096;2024-01-27T10:07:13;11.37;;;7.97;;
10511;SDS011;5304;48.604;2.096;2024-01-27T10:09:58;11.07;;;8.57;;
10511;SDS011;5304;48.604;2.096;2024-01-27T10:12:42;12.63;;;8.57;;
10511;SDS011;5304;48.604;2.096;2024-01-27T10:15:26;16.53;;;9.00;;
10511;SDS011;5304;48.604;2.096;2024-01-27T10:18:11;16.20;;;9.13;;
10511;SDS011;5304;48.604;2.096;2024-01-27T10:20:58;14.23;;;9.17;;
10511;SDS011;5304;48.604;2.096;2024-01-27T10:23:43;13.83;;;8.07;;
10511;SDS011;5304;48.604;2.096;2024-01-27T10:26:30;15.13;;;10.40;;
10511;SDS011;5304;48.604;2.096;2024-01-27T10:29:15;16.60;;;8.00;;
10511;SDS011;5304;48.604;2.096;2024-01-27T10:32:09;14.27;;;8.50;;
10511;SDS011;5304;48.604;2.096;2024-01-27T10:35:04;12.70;;;7.50;;
10511;SDS011;5304;48.604;2.096;2024-01-27T10:37:52;13.23;;;8.13;;
10511;SDS011;5304;48.604;2.096;2024-01-27T10:40:38;13.43;;;7.80;;
10511;SDS011;5304;48.604;2.096;2024-01-27T10:43:22;12.67;;;8.07;;
10511;SDS011;5304;48.604;2.096;2024-01-27T10:46:07;14.33;;;8.40;;
10511;SDS011;5304;48.604;2.096;2024-01-27T10:48:52;14.50;;;8.33;;
10511;SDS011;5304;48.604;2.096;2024-01-27T10:51:37;18.23;;;8.73;;
10511;SDS011;5304;48.604;2.096;2024-01-27T10:54:26;12.97;;;8.20;;
10511;SDS011;5304;48.604;2.096;2024-01-27T10:57:10;16.87;;;8.13;;
10511;SDS011;5304;48.604;2.096;2024-01-27T10:59:57;11.40;;;8.53;;
10511;SDS011;5304;48.604;2.096;2024-01-27T11:02:41;14.00;;;8.47;;
10511;SDS011;5304;48.604;2.096;2024-01-27T11:05:26;25.57;;;16.77;;
10511;SDS011;5304;48.604;2.096;2024-01-27T11:08:12;16.93;;;9.37;;
10511;SDS011;5304;48.604;2.096;2024-01-27T11:10:57;10.97;;;8.27;;
10511;SDS011;5304;48.604;2.096;2024-01-27T11:13:42;15.47;;;8.60;;
10511;SDS011;5304;48.604;2.096;2024-01-27T11:16:28;17.27;;;8.77;;
10511;SDS011;5304;48.604;2.096;2024-01-27T11:19:12;16.90;;;8.90;;
10511;SDS011;5304;48.604;2.096;2024-01-27T11:22:00;11.47;;;7.83;;
10511;SDS011;5304;48.604;2.096;2024-01-27T11:24:47;14.43;;;8.80;;
10511;SDS011;5304;48.604;2.096;2024-01-27T11:27:31;14.50;;;7.47;;
10511;SDS011;5304;48.604;2.096;2024-01-27T11:30:49;11.40;;;8.03;;
10511;SDS011;5304;48.604;2.096;2024-01-27T11:33:32;12.67;;;8.67;;
10511;SDS011;5304;48.604;2.096;2024-01-27T11:36:20;16.40;;;8.93;;
10511;SDS011;5304;48.604;2.096;2024-01-27T11:39:22;12.50;;;8.40;;
10511;SDS011;5304;48.604;2.096;2024-01-27T11:42:07;15.23;;;8.77;;
10511;SDS011;5304;48.604;2.096;2024-01-27T11:44:52;10.33;;;7.37;;
10511;SDS011;5304;48.604;2.096;2024-01-27T11:47:38;13.30;;;7.40;;
10511;SDS011;5304;48.604;2.096;2024-01-27T11:50:22;12.77;;;7.37;;
10511;SDS011;5304;48.604;2.096;2024-01-27T11:53:07;14.07;;;6.70;;
10511;SDS011;5304;48.604;2.096;2024-01-27T11:55:56;12.47;;;7.13;;
10511;SDS011;5304;48.604;2.096;2024-01-27T11:58:47;13.50;;;7.33;;
10511;SDS011;5304;48.604;2.096;2024-01-27T12:01:32;14.10;;;7.53;;
10511;SDS011;5304;48.604;2.096;2024-01-27T12:04:17;22.07;;;8.10;;
10511;SDS011;5304;48.604;2.096;2024-01-27T12:07:02;9.97;;;6.80;;
10511;SDS011;5304;48.604;2.096;2024-01-27T12:09:48;11.10;;;6.97;;
10511;SDS011;5304;48.604;2.096;2024-01-27T12:12:34;10.30;;;7.27;;
10511;SDS011;5304;48.604;2.096;2024-01-27T12:15:18;11.47;;;7.00;;
10511;SDS011;5304;48.604;2.096;2024-01-27T12:18:04;13.30;;;7.03;;
10511;SDS011;5304;48.604;2.096;2024-01-27T12:20:54;14.40;;;7.03;;
10511;SDS011;5304;48.604;2.096;2024-01-27T12:26:59;14.53;;;7.10;;
10511;SDS011;5304;48.604;2.096;2024-01-27T12:29:45;13.13;;;6.77;;
10511;SDS011;5304;48.604;2.096;2024-01-27T12:32:32;9.53;;;6.20;;
10511;SDS011;5304;48.604;2.096;2024-01-27T12:35:16;11.50;;;6.73;;
10511;SDS011;5304;48.604;2.096;2024-01-27T12:38:00;12.33;;;6.33;;
10511;SDS011;5304;48.604;2.096;2024-01-27T12:40:45;13.27;;;7.27;;
10511;SDS011;5304;48.604;2.096;2024-01-27T12:43:29;16.23;;;6.67;;
10511;SDS011;5304;48.604;2.096;2024-01-27T12:46:13;9.83;;;5.80;;
10511;SDS011;5304;48.604;2.096;2024-01-27T12:48:58;10.57;;;5.90;;
10511;SDS011;5304;48.604;2.096;2024-01-27T12:51:42;14.80;;;6.90;;
10511;SDS011;5304;48.604;2.096;2024-01-27T12:54:29;9.73;;;5.10;;
10511;SDS011;5304;48.604;2.096;2024-01-27T12:57:13;10.50;;;5.10;;
10511;SDS011;5304;48.604;2.096;2024-01-27T12:59:58;10.70;;;4.83;;
10511;SDS011;5304;48.604;2.096;2024-01-27T13:02:42;7.77;;;4.40;;
10511;SDS011;5304;48.604;2.096;2024-01-27T13:05:26;8.57;;;4.53;;
10511;SDS011;5304;48.604;2.096;2024-01-27T13:08:13;8.07;;;4.43;;
10511;SDS011;5304;48.604;2.096;2024-01-27T13:10:57;7.87;;;5.10;;
10511;SDS011;5304;48.604;2.096;2024-01-27T13:13:43;11.40;;;4.70;;
10511;SDS011;5304;48.604;2.096;2024-01-27T13:16:27;10.53;;;4.40;;
10511;SDS011;5304;48.604;2.096;2024-01-27T13:19:11;6.67;;;4.00;;
10511;SDS011;5304;48.604;2.096;2024-01-27T13:21:56;6.47;;;4.30;;
10511;SDS011;5304;48.604;2.096;2024-01-27T13:24:40;12.60;;;4.70;;
10511;SDS011;5304;48.604;2.096;2024-01-27T13:27:24;7.97;;;4.77;;
10511;SDS011;5304;48.604;2.096;2024-01-27T13:30:08;6.67;;;4.10;;
10511;SDS011;5304;48.604;2.096;2024-01-27T13:32:53;6.03;;;3.90;;
10511;SDS011;5304;48.604;2.096;2024-01-27T13:35:38;6.90;;;4.50;;
10511;SDS011;5304;48.604;2.096;2024-01-27T13:38:23;7.60;;;4.30;;
10511;SDS011;5304;48.604;2.096;2024-01-27T13:41:09;10.03;;;4.47;;
10511;SDS011;5304;48.604;2.096;2024-01-27T13:43:53;8.30;;;3.87;;
10511;SDS011;5304;48.604;2.096;2024-01-27T13:46:37;7.83;;;4.30;;
10511;SDS011;5304;48.604;2.096;2024-01-27T13:49:22;5.67;;;3.93;;
10511;SDS011;5304;48.604;2.096;2024-01-27T13:52:06;11.27;;;4.03;;
10511;SDS011;5304;48.604;2.096;2024-01-27T13:54:50;8.37;;;3.63;;
10511;SDS011;5304;48.604;2.096;2024-01-27T13:57:35;7.00;;;3.63;;
10511;SDS011;5304;48.604;2.096;2024-01-27T14:00:19;9.10;;;3.53;;
10511;SDS011;5304;48.604;2.096;2024-01-27T14:03:04;6.47;;;3.07;;
10511;SDS011;5304;48.604;2.096;2024-01-27T14:05:49;7.93;;;3.10;;
10511;SDS011;5304;48.604;2.096;2024-01-27T14:08:33;6.77;;;3.33;;
10511;SDS011;5304;48.604;2.096;2024-01-27T14:11:17;5.43;;;3.50;;
10511;SDS011;5304;48.604;2.096;2024-01-27T14:14:02;5.43;;;3.00;;
10511;SDS011;5304;48.604;2.096;2024-01-27T14:16:47;9.77;;;2.90;;
10511;SDS011;5304;48.604;2.096;2024-01-27T14:19:31;6.10;;;3.40;;
10511;SDS011;5304;48.604;2.096;2024-01-27T14:22:16;8.70;;;3.70;;
10511;SDS011;5304;48.604;2.096;2024-01-27T14:25:00;7.17;;;3.27;;
10511;SDS011;5304;48.604;2.096;2024-01-27T14:27:44;4.27;;;2.47;;
10511;SDS011;5304;48.604;2.096;2024-01-27T14:30:29;5.77;;;2.90;;
10511;SDS011;5304;48.604;2.096;2024-01-27T14:33:13;5.57;;;3.17;;
10511;SDS011;5304;48.604;2.096;2024-01-27T14:36:04;4.83;;;2.20;;
10511;SDS011;5304;48.604;2.096;2024-01-27T14:38:48;5.30;;;2.80;;
10511;SDS011;5304;48.604;2.096;2024-01-27T14:41:33;6.80;;;2.80;;
10511;SDS011;5304;48.604;2.096;2024-01-27T14:44:17;6.17;;;2.47;;
10511;SDS011;5304;48.604;2.096;2024-01-27T14:47:02;4.67;;;2.60;;
10511;SDS011;5304;48.604;2.096;2024-01-27T14:49:46;6.80;;;3.30;;
10511;SDS011;5304;48.604;2.096;2024-01-27T14:52:31;5.37;;;2.67;;
10511;SDS011;5304;48.604;2.096;2024-01-27T14:55:16;5.73;;;3.00;;
10511;SDS011;5304;48.604;2.096;2024-01-27T14:58:00;5.43;;;3.10;;
10511;SDS011;5304;48.604;2.096;2024-01-27T15:00:47;5.13;;;2.93;;
10511;SDS011;5304;48.604;2.096;2024-01-27T15:03:38;3.47;;;2.17;;
10511;SDS011;5304;48.604;2.096;2024-01-27T15:06:24;8.10;;;2.80;;
10511;SDS011;5304;48.604;2.096;2024-01-27T15:09:08;5.10;;;2.53;;
10511;SDS011;5304;48.604;2.096;2024-01-27T15:11:52;6.33;;;2.63;;
10511;SDS011;5304;48.604;2.096;2024-01-27T15:14:37;6.10;;;2.80;;
10511;SDS011;5304;48.604;2.096;2024-01-27T15:17:21;9.10;;;2.83;;
10511;SDS011;5304;48.604;2.096;2024-01-27T15:20:05;8.13;;;2.90;;
10511;SDS011;5304;48.604;2.096;2024-01-27T15:22:50;5.40;;;2.97;;
10511;SDS011;5304;48.604;2.096;2024-01-27T15:25:34;6.70;;;2.77;;
10511;SDS011;5304;48.604;2.096;2024-01-27T15:28:19;4.30;;;2.60;;
10511;SDS011;5304;48.604;2.096;2024-01-27T15:31:03;8.00;;;3.10;;
10511;SDS011;5304;48.604;2.096;2024-01-27T15:33:47;5.77;;;2.50;;
10511;SDS011;5304;48.604;2.096;2024-01-27T15:36:32;5.33;;;2.73;;
10511;SDS011;5304;48.604;2.096;2024-01-27T15:39:16;6.47;;;2.60;;
10511;SDS011;5304;48.604;2.096;2024-01-27T15:42:00;6.17;;;2.53;;
10511;SDS011;5304;48.604;2.096;2024-01-27T15:44:47;8.33;;;3.00;;
10511;SDS011;5304;48.604;2.096;2024-01-27T15:47:31;8.03;;;3.17;;
10511;SDS011;5304;48.604;2.096;2024-01-27T15:50:15;4.43;;;2.63;;
10511;SDS011;5304;48.604;2.096;2024-01-27T15:53:02;5.87;;;2.83;;
10511;SDS011;5304;48.604;2.096;2024-01-27T15:55:47;6.77;;;2.33;;
10511;SDS011;5304;48.604;2.096;2024-01-27T15:58:31;8.53;;;2.67;;
10511;SDS011;5304;48.604;2.096;2024-01-27T16:01:15;5.43;;;2.77;;
10511;SDS011;5304;48.604;2.096;2024-01-27T16:04:00;9.90;;;3.37;;
10511;SDS011;5304;48.604;2.096;2024-01-27T16:06:44;10.20;;;3.90;;
10511;SDS011;5304;48.604;2.096;2024-01-27T16:09:29;12.10;;;4.73;;
10511;SDS011;5304;48.604;2.096;2024-01-27T16:12:13;9.00;;;3.27;;
10511;SDS011;5304;48.604;2.096;2024-01-27T16:14:57;16.97;;;3.60;;
10511;SDS011;5304;48.604;2.096;2024-01-27T16:17:41;7.67;;;3.30;;
10511;SDS011;5304;48.604;2.096;2024-01-27T16:20:26;8.43;;;2.63;;
10511;SDS011;5304;48.604;2.096;2024-01-27T16:23:10;6.33;;;2.40;;
10511;SDS011;5304;48.604;2.096;2024-01-27T16:25:54;11.17;;;3.20;;
10511;SDS011;5304;48.604;2.096;2024-01-27T16:28:39;5.70;;;2.50;;
10511;SDS011;5304;48.604;2.096;2024-01-27T16:31:24;8.27;;;2.63;;
10511;SDS011;5304;48.604;2.096;2024-01-27T16:34:08;6.17;;;2.40;;
10511;SDS011;5304;48.604;2.096;2024-01-27T16:36:53;2.97;;;2.10;;
10511;SDS011;5304;48.604;2.096;2024-01-27T16:39:37;8.03;;;2.97;;
10511;SDS011;5304;48.604;2.096;2024-01-27T16:42:22;5.03;;;2.80;;
10511;SDS011;5304;48.604;2.096;2024-01-27T16:45:06;9.23;;;3.67;;
10511;SDS011;5304;48.604;2.096;2024-01-27T16:47:52;7.87;;;3.40;;
10511;SDS011;5304;48.604;2.096;2024-01-27T16:50:36;8.40;;;3.30;;
10511;SDS011;5304;48.604;2.096;2024-01-27T16:53:20;7.13;;;3.40;;
10511;SDS011;5304;48.604;2.096;2024-01-27T16:56:04;6.47;;;2.97;;
10511;SDS011;5304;48.604;2.096;2024-01-27T16:58:49;10.43;;;3.80;;
10511;SDS011;5304;48.604;2.096;2024-01-27T17:01:35;9.33;;;3.27;;
10511;SDS011;5304;48.604;2.096;2024-01-27T17:04:19;7.10;;;3.37;;
10511;SDS011;5304;48.604;2.096;2024-01-27T17:07:03;11.27;;;2.93;;
10511;SDS011;5304;48.604;2.096;2024-01-27T17:09:48;7.13;;;3.23;;
10511;SDS011;5304;48.604;2.096;2024-01-27T17:12:32;7.33;;;3.30;;
10511;SDS011;5304;48.604;2.096;2024-01-27T17:15:16;7.60;;;3.13;;
10511;SDS011;5304;48.604;2.096;2024-01-27T17:18:01;6.20;;;3.20;;
10511;SDS011;5304;48.604;2.096;2024-01-27T17:20:45;5.67;;;2.77;;
10511;SDS011;5304;48.604;2.096;2024-01-27T17:23:31;5.90;;;2.90;;
10511;SDS011;5304;48.604;2.096;2024-01-27T17:26:16;8.83;;;2.90;;
10511;SDS011;5304;48.604;2.096;2024-01-27T17:29:01;10.07;;;3.23;;
10511;SDS011;5304;48.604;2.096;2024-01-27T17:31:46;7.47;;;3.10;;
10511;SDS011;5304;48.604;2.096;2024-01-27T17:34:31;6.60;;;3.10;;
10511;SDS011;5304;48.604;2.096;2024-01-27T17:37:15;7.73;;;3.00;;
10511;SDS011;5304;48.604;2.096;2024-01-27T17:39:59;7.63;;;2.90;;
10511;SDS011;5304;48.604;2.096;2024-01-27T17:42:48;6.70;;;2.77;;
10511;SDS011;5304;48.604;2.096;2024-01-27T17:45:32;4.43;;;2.50;;
10511;SDS011;5304;48.604;2.096;2024-01-27T17:48:17;5.43;;;2.47;;
10511;SDS011;5304;48.604;2.096;2024-01-27T17:51:02;6.30;;;2.90;;
10511;SDS011;5304;48.604;2.096;2024-01-27T17:53:46;7.40;;;2.87;;
10511;SDS011;5304;48.604;2.096;2024-01-27T17:56:31;5.30;;;3.13;;
10511;SDS011;5304;48.604;2.096;2024-01-27T17:59:15;8.13;;;2.80;;
10511;SDS011;5304;48.604;2.096;2024-01-27T18:01:59;8.67;;;3.00;;
10511;SDS011;5304;48.604;2.096;2024-01-27T18:04:44;7.27;;;2.97;;
10511;SDS011;5304;48.604;2.096;2024-01-27T18:07:29;9.67;;;4.10;;
10511;SDS011;5304;48.604;2.096;2024-01-27T18:10:13;10.13;;;3.10;;
10511;SDS011;5304;48.604;2.096;2024-01-27T18:12:58;7.93;;;3.13;;
10511;SDS011;5304;48.604;2.096;2024-01-27T18:15:42;9.43;;;3.57;;
10511;SDS011;5304;48.604;2.096;2024-01-27T18:18:26;13.23;;;3.70;;
10511;SDS011;5304;48.604;2.096;2024-01-27T18:21:10;7.07;;;3.50;;
10511;SDS011;5304;48.604;2.096;2024-01-27T18:23:55;8.03;;;3.40;;
10511;SDS011;5304;48.604;2.096;2024-01-27T18:26:39;9.97;;;3.83;;
10511;SDS011;5304;48.604;2.096;2024-01-27T18:29:24;13.43;;;4.20;;
10511;SDS011;5304;48.604;2.096;2024-01-27T18:32:08;6.33;;;4.40;;
10511;SDS011;5304;48.604;2.096;2024-01-27T18:34:52;7.63;;;4.27;;
10511;SDS011;5304;48.604;2.096;2024-01-27T18:37:37;10.93;;;4.50;;
10511;SDS011;5304;48.604;2.096;2024-01-27T18:40:21;9.20;;;4.00;;
10511;SDS011;5304;48.604;2.096;2024-01-27T18:43:05;10.40;;;4.27;;
10511;SDS011;5304;48.604;2.096;2024-01-27T18:45:49;8.37;;;4.73;;
10511;SDS011;5304;48.604;2.096;2024-01-27T18:48:34;14.50;;;4.63;;
10511;SDS011;5304;48.604;2.096;2024-01-27T18:51:22;13.10;;;4.80;;
10511;SDS011;5304;48.604;2.096;2024-01-27T18:54:06;14.53;;;4.97;;
10511;SDS011;5304;48.604;2.096;2024-01-27T18:56:50;8.67;;;4.57;;
10511;SDS011;5304;48.604;2.096;2024-01-27T18:59:36;5.53;;;4.07;;
10511;SDS011;5304;48.604;2.096;2024-01-27T19:02:21;8.73;;;4.87;;
10511;SDS011;5304;48.604;2.096;2024-01-27T19:05:05;8.90;;;4.70;;
10511;SDS011;5304;48.604;2.096;2024-01-27T19:07:51;9.60;;;5.03;;
10511;SDS011;5304;48.604;2.096;2024-01-27T19:10:35;9.00;;;5.77;;
10511;SDS011;5304;48.604;2.096;2024-01-27T19:13:20;10.87;;;5.07;;
10511;SDS011;5304;48.604;2.096;2024-01-27T19:16:06;14.37;;;4.93;;
10511;SDS011;5304;48.604;2.096;2024-01-27T19:18:51;9.70;;;4.63;;
10511;SDS011;5304;48.604;2.096;2024-01-27T19:21:36;7.93;;;4.77;;
10511;SDS011;5304;48.604;2.096;2024-01-27T19:24:20;10.00;;;4.80;;
10511;SDS011;5304;48.604;2.096;2024-01-27T19:27:04;11.20;;;5.53;;
10511;SDS011;5304;48.604;2.096;2024-01-27T19:29:48;10.97;;;5.10;;
10511;SDS011;5304;48.604;2.096;2024-01-27T19:32:32;9.57;;;5.10;;
10511;SDS011;5304;48.604;2.096;2024-01-27T19:35:17;8.90;;;4.87;;
10511;SDS011;5304;48.604;2.096;2024-01-27T19:38:03;9.37;;;4.70;;
10511;SDS011;5304;48.604;2.096;2024-01-27T19:40:48;8.93;;;5.50;;
10511;SDS011;5304;48.604;2.096;2024-01-27T19:43:33;9.77;;;5.57;;
10511;SDS011;5304;48.604;2.096;2024-01-27T19:46:18;11.43;;;5.73;;
10511;SDS011;5304;48.604;2.096;2024-01-27T19:49:02;14.83;;;5.77;;
10511;SDS011;5304;48.604;2.096;2024-01-27T19:51:46;12.53;;;5.90;;
10511;SDS011;5304;48.604;2.096;2024-01-27T19:54:31;9.07;;;5.20;;
10511;SDS011;5304;48.604;2.096;2024-01-27T19:57:15;12.27;;;5.60;;
10511;SDS011;5304;48.604;2.096;2024-01-27T19:59:59;8.97;;;5.17;;
10511;SDS011;5304;48.604;2.096;2024-01-27T20:02:43;11.63;;;5.60;;
10511;SDS011;5304;48.604;2.096;2024-01-27T20:05:31;12.50;;;5.13;;
10511;SDS011;5304;48.604;2.096;2024-01-27T20:08:15;14.47;;;6.10;;
10511;SDS011;5304;48.604;2.096;2024-01-27T20:10:59;11.07;;;5.73;;
10511;SDS011;5304;48.604;2.096;2024-01-27T20:13:45;10.13;;;5.93;;
10511;SDS011;5304;48.604;2.096;2024-01-27T20:16:29;10.40;;;6.30;;
10511;SDS011;5304;48.604;2.096;2024-01-27T20:19:13;12.13;;;6.13;;
10511;SDS011;5304;48.604;2.096;2024-01-27T20:21:57;13.80;;;6.27;;
10511;SDS011;5304;48.604;2.096;2024-01-27T20:24:42;10.67;;;6.03;;
10511;SDS011;5304;48.604;2.096;2024-01-27T20:27:26;13.07;;;6.03;;
10511;SDS011;5304;48.604;2.096;2024-01-27T20:30:11;12.67;;;6.27;;
10511;SDS011;5304;48.604;2.096;2024-01-27T20:32:56;11.97;;;6.40;;
10511;SDS011;5304;48.604;2.096;2024-01-27T20:35:41;15.30;;;6.20;;
10511;SDS011;5304;48.604;2.096;2024-01-27T20:38:26;9.27;;;5.90;;
10511;SDS011;5304;48.604;2.096;2024-01-27T20:41:10;12.60;;;6.00;;
10511;SDS011;5304;48.604;2.096;2024-01-27T20:43:55;12.20;;;6.23;;
10511;SDS011;5304;48.604;2.096;2024-01-27T20:46:39;18.27;;;6.50;;
10511;SDS011;5304;48.604;2.096;2024-01-27T20:49:24;9.67;;;6.73;;
10511;SDS011;5304;48.604;2.096;2024-01-27T20:52:08;12.53;;;6.33;;
10511;SDS011;5304;48.604;2.096;2024-01-27T20:54:52;13.37;;;6.37;;
10511;SDS011;5304;48.604;2.096;2024-01-27T20:57:37;14.63;;;6.93;;
10511;SDS011;5304;48.604;2.096;2024-01-27T21:00:22;14.87;;;6.43;;
10511;SDS011;5304;48.604;2.096;2024-01-27T21:03:06;14.00;;;6.57;;
10511;SDS011;5304;48.604;2.096;2024-01-27T21:05:51;14.00;;;6.27;;
10511;SDS011;5304;48.604;2.096;2024-01-27T21:08:35;11.73;;;7.00;;
10511;SDS011;5304;48.604;2.096;2024-01-27T21:11:20;14.73;;;7.13;;
10511;SDS011;5304;48.604;2.096;2024-01-27T21:14:04;11.63;;;7.03;;
10511;SDS011;5304;48.604;2.096;2024-01-27T21:16:50;11.33;;;6.37;;
10511;SDS011;5304;48.604;2.096;2024-01-27T21:19:35;10.07;;;6.70;;
10511;SDS011;5304;48.604;2.096;2024-01-27T21:22:24;9.23;;;5.73;;
10511;SDS011;5304;48.604;2.096;2024-01-27T21:25:08;13.70;;;6.00;;
10511;SDS011;5304;48.604;2.096;2024-01-27T21:27:52;16.97;;;6.27;;